createdAt,value
2023-03-19T00:01:46.392Z,80.73
2023-03-19T00:03:49.404Z,80.16
2023-03-19T00:05:53.899Z,80.38
2023-03-19T00:07:57.157Z,80.72
2023-03-19T00:09:59.879Z,81.20
2023-03-19T00:12:02.721Z,80.91
2023-03-19T00:14:06.403Z,79.91
2023-03-19T00:16:09.270Z,80.04
2023-03-19T00:18:12.404Z,79.57
2023-03-19T00:20:15.733Z,80.70
2023-03-19T00:22:18.856Z,78.52
2023-03-19T00:24:21.544Z,77.76
2023-03-19T00:26:24.286Z,78.31
2023-03-19T00:28:27.523Z,78.64
2023-03-19T00:30:30.262Z,78.67
2023-03-19T00:32:34.352Z,78.82
2023-03-19T00:34:37.164Z,78.44
2023-03-19T00:36:40.220Z,77.16
2023-03-19T00:38:44.068Z,77.66
2023-03-19T00:40:47.980Z,77.67
2023-03-19T00:42:51.066Z,78.65
2023-03-19T00:44:53.797Z,77.65
2023-03-19T00:46:56.560Z,77.65
2023-03-19T00:48:59.355Z,77.31
2023-03-19T00:51:07.143Z,77.32
2023-03-19T00:53:10.312Z,77.13
2023-03-19T00:55:13.128Z,77.48
2023-03-19T00:57:16.124Z,77.55
2023-03-19T00:59:18.930Z,77.74
2023-03-19T01:01:21.836Z,78.43
2023-03-19T01:03:24.524Z,77.18
2023-03-19T01:05:27.356Z,77.61
2023-03-19T01:07:29.844Z,76.54
2023-03-19T01:09:32.981Z,75.83
2023-03-19T01:11:36.052Z,77.04
2023-03-19T01:13:38.863Z,77.24
2023-03-19T01:15:43.088Z,77.05
2023-03-19T01:17:45.993Z,75.81
2023-03-19T01:19:51.056Z,77.46
2023-03-19T01:21:53.652Z,76.56
2023-03-19T01:23:57.245Z,78.09
2023-03-19T01:25:59.735Z,76.55
2023-03-19T01:28:03.207Z,76.26
2023-03-19T01:30:07.747Z,77.09
2023-03-19T01:32:10.879Z,76.77
2023-03-19T01:34:13.489Z,76.98
2023-03-19T01:36:16.053Z,77.67
2023-03-19T01:38:18.750Z,77.43
2023-03-19T01:40:21.280Z,77.00
2023-03-19T01:42:23.880Z,77.25
2023-03-19T01:44:35.800Z,77.96
2023-03-19T01:46:39.637Z,77.79
2023-03-19T01:48:44.638Z,76.93
2023-03-19T01:50:50.472Z,77.87
2023-03-19T01:52:53.053Z,76.50
2023-03-19T01:54:57.484Z,77.11
2023-03-19T01:57:05.919Z,76.20
2023-03-19T01:59:14.133Z,76.63
2023-03-19T02:01:17.141Z,76.35
2023-03-19T02:03:19.648Z,76.38
2023-03-19T02:05:26.100Z,76.73
2023-03-19T02:07:35.038Z,76.71
2023-03-19T02:09:37.627Z,77.03
2023-03-19T02:11:40.545Z,77.62
2023-03-19T02:13:43.832Z,76.80
2023-03-19T02:15:46.534Z,78.68
2023-03-19T02:17:49.465Z,78.13
2023-03-19T02:20:11.166Z,78.70
2023-03-19T02:22:16.875Z,78.35
2023-03-19T02:24:29.116Z,77.35
2023-03-19T02:26:32.113Z,78.83
2023-03-19T02:28:37.849Z,79.53
2023-03-19T02:30:41.302Z,79.45
2023-03-19T02:32:44.771Z,79.65
2023-03-19T02:34:48.751Z,79.09
2023-03-19T02:36:55.984Z,78.97
2023-03-19T02:39:02.789Z,79.24
2023-03-19T02:41:08.829Z,79.83
2023-03-19T02:43:11.523Z,79.75
2023-03-19T02:45:15.014Z,79.72
2023-03-19T02:47:18.250Z,79.96
2023-03-19T02:49:20.743Z,79.41
2023-03-19T02:51:23.539Z,80.66
2023-03-19T02:53:26.280Z,79.58
2023-03-19T02:55:28.868Z,80.73
2023-03-19T02:57:31.419Z,80.15
2023-03-19T02:59:34.379Z,80.60
2023-03-19T03:01:37.684Z,80.19
2023-03-19T03:03:40.228Z,81.27
2023-03-19T03:05:42.820Z,80.87
2023-03-19T03:07:45.345Z,82.08
2023-03-19T03:09:48.066Z,81.36
2023-03-19T03:11:51.171Z,82.08
2023-03-19T03:13:53.608Z,81.76
2023-03-19T03:15:56.268Z,81.47
2023-03-19T03:17:58.908Z,82.48
2023-03-19T03:20:01.445Z,81.71
2023-03-19T03:22:05.772Z,81.09
2023-03-19T03:24:09.547Z,81.08
2023-03-19T03:26:12.412Z,81.55
2023-03-19T03:28:14.879Z,80.92
2023-03-19T03:30:17.552Z,80.01
2023-03-19T03:32:20.023Z,81.04
2023-03-19T03:34:22.515Z,80.01
2023-03-19T03:36:25.649Z,79.62
2023-03-19T03:38:32.716Z,79.37
2023-03-19T03:40:36.861Z,79.63
2023-03-19T03:42:39.408Z,79.34
2023-03-19T03:44:42.340Z,78.35
2023-03-19T03:46:44.856Z,78.97
2023-03-19T03:48:49.469Z,79.48
2023-03-19T03:50:52.473Z,78.92
2023-03-19T03:52:54.986Z,79.36
2023-03-19T03:54:58.658Z,79.45
2023-03-19T03:57:03.514Z,79.08
2023-03-19T03:59:06.289Z,79.74
2023-03-19T04:01:15.283Z,78.92
2023-03-19T04:03:18.473Z,78.77
2023-03-19T04:05:21.092Z,78.76
2023-03-19T04:07:23.680Z,78.49
2023-03-19T04:09:26.565Z,78.18
2023-03-19T04:11:29.792Z,77.62
2023-03-19T04:13:36.671Z,77.01
2023-03-19T04:15:43.059Z,76.43
2023-03-19T04:17:45.704Z,75.25
2023-03-19T04:19:48.255Z,75.64
2023-03-19T04:21:51.018Z,76.04
2023-03-19T04:23:53.466Z,75.99
2023-03-19T04:26:04.351Z,76.06
2023-03-19T04:28:07.123Z,74.18
2023-03-19T04:30:10.493Z,74.23
2023-03-19T04:32:13.132Z,73.71
2023-03-19T04:34:15.678Z,73.99
2023-03-19T04:36:19.051Z,72.27
2023-03-19T04:38:22.316Z,72.08
2023-03-19T04:40:25.394Z,71.85
2023-03-19T04:42:28.017Z,70.88
2023-03-19T04:44:31.210Z,71.58
2023-03-19T04:46:33.743Z,72.21
2023-03-19T04:48:36.575Z,71.67
2023-03-19T04:50:40.451Z,70.23
2023-03-19T04:52:43.014Z,70.21
2023-03-19T04:54:45.512Z,70.96
2023-03-19T04:56:48.016Z,69.18
2023-03-19T04:58:50.571Z,69.98
2023-03-19T05:00:53.684Z,69.80
2023-03-19T05:02:56.786Z,69.66
2023-03-19T05:04:59.307Z,68.86
2023-03-19T05:07:01.817Z,68.27
2023-03-19T05:09:05.600Z,67.93
2023-03-19T05:11:08.166Z,68.63
2023-03-19T05:13:11.022Z,68.13
2023-03-19T05:15:13.560Z,67.99
2023-03-19T05:17:16.117Z,68.57
2023-03-19T05:19:18.691Z,67.76
2023-03-19T05:21:21.629Z,68.00
2023-03-19T05:23:24.247Z,68.14
2023-03-19T05:25:27.211Z,66.23
2023-03-19T05:27:30.152Z,67.42
2023-03-19T05:29:32.833Z,67.49
2023-03-19T05:31:35.457Z,67.82
2023-03-19T05:33:38.021Z,67.12
2023-03-19T05:35:40.716Z,66.99
2023-03-19T05:37:43.345Z,66.98
2023-03-19T05:39:45.795Z,66.54
2023-03-19T05:41:48.346Z,66.40
2023-03-19T05:43:51.467Z,66.81
2023-03-19T05:45:54.042Z,67.38
2023-03-19T05:47:56.914Z,65.90
2023-03-19T05:49:59.509Z,66.93
2023-03-19T05:52:01.935Z,66.35
2023-03-19T05:54:04.541Z,65.74
2023-03-19T05:56:07.791Z,65.25
2023-03-19T05:58:10.470Z,65.05
2023-03-19T06:00:14.036Z,65.32
2023-03-19T06:02:16.575Z,64.80
2023-03-19T06:04:19.452Z,66.04
2023-03-19T06:06:22.929Z,64.56
2023-03-19T06:08:25.507Z,64.82
2023-03-19T06:10:28.527Z,64.99
2023-03-19T06:12:32.477Z,64.76
2023-03-19T06:14:35.008Z,65.34
2023-03-19T06:16:37.645Z,64.55
2023-03-19T06:18:40.589Z,64.16
2023-03-19T06:20:43.126Z,63.98
2023-03-19T06:22:45.641Z,64.37
2023-03-19T06:24:48.225Z,64.89
2023-03-19T06:26:50.707Z,64.15
2023-03-19T06:28:54.134Z,64.33
2023-03-19T06:30:58.018Z,65.29
2023-03-19T06:33:00.907Z,64.92
2023-03-19T06:35:03.603Z,65.02
2023-03-19T06:37:06.345Z,64.99
2023-03-19T06:39:09.431Z,65.77
2023-03-19T06:41:12.157Z,65.81
2023-03-19T06:43:14.786Z,63.00
2023-03-19T06:45:19.082Z,65.18
2023-03-19T06:47:21.620Z,64.10
2023-03-19T06:49:29.292Z,63.06
2023-03-19T06:51:33.602Z,62.83
2023-03-19T06:53:36.211Z,61.99
2023-03-19T06:55:38.974Z,62.74
2023-03-19T06:57:41.610Z,62.94
2023-03-19T06:59:44.224Z,62.63
2023-03-19T07:01:46.993Z,62.52
2023-03-19T07:03:49.728Z,61.29
2023-03-19T07:05:52.326Z,62.32
2023-03-19T07:07:54.878Z,61.93
2023-03-19T07:09:57.417Z,60.69
2023-03-19T07:12:00.045Z,61.80
2023-03-19T07:14:03.130Z,62.10
2023-03-19T07:16:06.493Z,60.85
2023-03-19T07:18:09.070Z,61.61
2023-03-19T07:20:12.297Z,61.04
2023-03-19T07:22:14.759Z,62.16
2023-03-19T07:24:17.357Z,62.67
2023-03-19T07:26:20.243Z,61.08
2023-03-19T07:28:23.230Z,61.98
2023-03-19T07:30:26.064Z,60.95
2023-03-19T07:32:28.628Z,61.80
2023-03-19T07:34:31.767Z,62.29
2023-03-19T07:36:34.309Z,62.54
2023-03-19T07:38:36.834Z,60.96
2023-03-19T07:40:43.377Z,61.30
2023-03-19T07:42:48.491Z,62.84
2023-03-19T07:44:51.069Z,62.24
2023-03-19T07:46:53.726Z,62.42
2023-03-19T07:48:56.324Z,60.85
2023-03-19T07:50:58.976Z,61.98
2023-03-19T07:53:01.471Z,60.57
2023-03-19T07:55:04.309Z,61.20
2023-03-19T07:57:07.093Z,62.00
2023-03-19T07:59:09.662Z,61.74
2023-03-19T08:01:12.280Z,60.09
2023-03-19T08:03:15.021Z,61.12
2023-03-19T08:05:17.696Z,60.22
2023-03-19T08:07:20.317Z,62.12
2023-03-19T08:09:22.806Z,61.82
2023-03-19T08:11:25.712Z,61.39
2023-03-19T08:13:28.615Z,62.77
2023-03-19T08:15:31.291Z,61.55
2023-03-19T08:17:38.608Z,64.81
2023-03-19T08:19:41.478Z,64.56
2023-03-19T08:21:44.058Z,62.80
2023-03-19T08:23:46.708Z,63.68
2023-03-19T08:25:51.900Z,63.00
2023-03-19T08:27:54.589Z,64.32
2023-03-19T08:30:00.357Z,64.78
2023-03-19T08:32:03.238Z,64.27
2023-03-19T08:34:06.287Z,64.65
2023-03-19T08:36:14.369Z,64.42
2023-03-19T08:38:17.207Z,62.26
2023-03-19T08:40:19.982Z,62.67
2023-03-19T08:42:23.021Z,63.77
2023-03-19T08:44:25.889Z,62.32
2023-03-19T08:46:29.501Z,64.06
2023-03-19T08:48:32.228Z,62.84
2023-03-19T08:50:34.895Z,62.99
2023-03-19T08:52:37.869Z,64.20
2023-03-19T08:54:40.690Z,64.61
2023-03-19T08:56:43.278Z,64.84
2023-03-19T08:58:45.938Z,63.99
2023-03-19T09:00:49.415Z,60.11
2023-03-19T09:02:51.945Z,62.18
2023-03-19T09:04:54.756Z,62.65
2023-03-19T09:06:57.560Z,63.31
2023-03-19T09:09:00.132Z,62.06
2023-03-19T09:11:03.116Z,62.19
2023-03-19T09:13:05.904Z,61.76
2023-03-19T09:15:08.742Z,60.99
2023-03-19T09:17:11.774Z,59.76
2023-03-19T09:19:14.501Z,60.81
2023-03-19T09:21:17.086Z,59.94
2023-03-19T09:23:20.945Z,62.02
2023-03-19T09:25:23.610Z,61.39
2023-03-19T09:27:26.161Z,61.43
2023-03-19T09:29:28.918Z,60.60
2023-03-19T09:31:31.483Z,59.44
2023-03-19T09:33:34.734Z,57.77
2023-03-19T09:35:39.878Z,60.36
2023-03-19T09:37:42.573Z,57.88
2023-03-19T09:39:45.421Z,57.85
2023-03-19T09:42:10.071Z,55.50
2023-03-19T09:44:28.681Z,54.89
2023-03-19T09:47:02.034Z,56.51
2023-03-19T09:49:12.378Z,60.79
2023-03-19T09:51:22.006Z,57.90
2023-03-19T09:53:45.732Z,52.04
2023-03-19T09:55:54.392Z,59.53
2023-03-19T09:57:59.014Z,58.54
2023-03-19T10:00:01.673Z,57.37
2023-03-19T10:02:24.956Z,54.69
2023-03-19T10:04:47.430Z,59.78
2023-03-19T10:06:57.778Z,57.57
2023-03-19T10:09:29.094Z,55.51
2023-03-19T10:11:31.701Z,58.03
2023-03-19T10:14:14.102Z,55.59
2023-03-19T10:16:24.481Z,59.29
2023-03-19T10:18:35.272Z,59.77
2023-03-19T10:21:10.125Z,59.70
2023-03-19T10:23:28.700Z,57.53
2023-03-19T10:25:33.850Z,60.73
2023-03-19T10:27:38.198Z,59.83
2023-03-19T10:29:44.759Z,60.97
2023-03-19T10:31:56.454Z,59.50
2023-03-19T10:34:08.235Z,57.97
2023-03-19T10:36:14.711Z,58.36
2023-03-19T10:38:24.425Z,59.09
2023-03-19T10:40:36.687Z,57.20
2023-03-19T10:43:02.275Z,56.56
2023-03-19T10:45:26.851Z,54.69
2023-03-19T10:47:29.412Z,57.69
2023-03-19T10:49:36.236Z,58.90
2023-03-19T10:51:40.081Z,58.01
2023-03-19T10:53:42.999Z,58.14
2023-03-19T10:55:55.449Z,55.28
2023-03-19T10:58:17.157Z,55.97
2023-03-19T11:00:22.802Z,61.25
2023-03-19T11:02:32.013Z,59.97
2023-03-19T11:04:34.546Z,58.85
2023-03-19T11:06:39.162Z,55.88
2023-03-19T11:08:42.036Z,57.51
2023-03-19T11:10:49.878Z,56.20
2023-03-19T11:12:57.945Z,58.22
2023-03-19T11:15:04.043Z,58.12
2023-03-19T11:17:24.097Z,60.15
2023-03-19T11:19:29.755Z,57.76
2023-03-19T11:21:33.081Z,54.16
2023-03-19T11:23:41.652Z,57.13
2023-03-19T11:25:53.261Z,58.56
2023-03-19T11:28:03.931Z,56.78
2023-03-19T11:30:20.598Z,56.90
2023-03-19T11:32:52.493Z,55.18
2023-03-19T11:35:07.669Z,57.24
2023-03-19T11:37:48.347Z,55.00
2023-03-19T11:39:57.072Z,60.28
2023-03-19T11:42:10.781Z,58.35
2023-03-19T11:44:46.746Z,53.11
2023-03-19T11:46:57.367Z,58.23
2023-03-19T11:49:08.779Z,52.74
2023-03-19T11:51:31.377Z,55.72
2023-03-19T11:53:41.641Z,58.09
2023-03-19T11:55:56.667Z,57.12
2023-03-19T11:58:37.447Z,56.26
2023-03-19T12:00:47.596Z,55.93
2023-03-19T12:03:09.735Z,58.94
2023-03-19T12:05:14.727Z,55.50
2023-03-19T12:07:40.272Z,56.31
2023-03-19T12:09:49.615Z,56.88
2023-03-19T12:12:07.720Z,55.44
2023-03-19T12:14:19.201Z,56.54
2023-03-19T12:16:55.991Z,56.47
2023-03-19T12:19:18.143Z,55.69
2023-03-19T12:21:29.478Z,53.54
2023-03-19T12:24:05.383Z,55.01
2023-03-19T12:26:14.783Z,55.91
2023-03-19T12:28:30.194Z,58.75
2023-03-19T12:30:34.942Z,58.78
2023-03-19T12:32:55.814Z,55.14
2023-03-19T12:35:06.136Z,56.55
2023-03-19T12:37:22.672Z,56.39
2023-03-19T12:39:34.703Z,54.16
2023-03-19T12:41:42.544Z,57.95
2023-03-19T12:44:24.490Z,53.75
2023-03-19T12:46:58.613Z,54.42
2023-03-19T12:49:10.965Z,57.85
2023-03-19T12:51:20.589Z,56.02
2023-03-19T12:53:42.993Z,54.54
2023-03-19T12:55:53.531Z,53.63
2023-03-19T12:58:03.946Z,55.16
2023-03-19T13:00:26.816Z,53.32
2023-03-19T13:02:48.607Z,53.72
2023-03-19T13:04:57.624Z,56.20
2023-03-19T13:07:06.092Z,53.84
2023-03-19T13:09:33.655Z,55.36
2023-03-19T13:11:57.666Z,53.62
2023-03-19T13:14:14.714Z,52.80
2023-03-19T13:16:36.169Z,53.10
2023-03-19T13:18:43.465Z,58.05
2023-03-19T13:20:58.322Z,54.01
2023-03-19T13:23:04.959Z,56.41
2023-03-19T13:25:24.142Z,56.24
2023-03-19T13:27:31.778Z,59.69
2023-03-19T13:29:36.980Z,57.83
2023-03-19T13:31:39.603Z,58.35
2023-03-19T13:34:11.178Z,57.59
2023-03-19T13:36:15.312Z,58.37
2023-03-19T13:38:39.750Z,59.88
2023-03-19T13:40:53.174Z,59.90
2023-03-19T13:42:58.651Z,56.40
2023-03-19T13:45:26.559Z,58.03
2023-03-19T13:47:28.998Z,58.96
2023-03-19T13:49:34.125Z,58.61
2023-03-19T13:51:36.781Z,60.21
2023-03-19T13:53:53.775Z,58.93
2023-03-19T13:56:00.973Z,60.69
2023-03-19T13:58:52.076Z,59.84
2023-03-19T14:00:59.621Z,56.74
2023-03-19T14:03:02.403Z,61.18
2023-03-19T14:05:17.129Z,58.97
2023-03-19T14:07:24.548Z,60.19
2023-03-19T14:09:42.286Z,54.08
2023-03-19T14:11:44.888Z,61.94
2023-03-19T14:13:49.521Z,59.46
2023-03-19T14:15:53.394Z,62.33
2023-03-19T14:17:57.750Z,62.14
2023-03-19T14:20:13.684Z,56.97
2023-03-19T14:22:16.981Z,63.79
2023-03-19T14:24:55.786Z,56.72
2023-03-19T14:27:20.386Z,62.28
2023-03-19T14:29:27.871Z,64.15
2023-03-19T14:31:54.666Z,63.99
2023-03-19T14:34:06.663Z,65.68
2023-03-19T14:36:12.673Z,62.86
2023-03-19T14:38:51.545Z,67.63
2023-03-19T14:40:56.465Z,72.90
2023-03-19T14:43:14.043Z,73.19
2023-03-19T14:45:42.186Z,67.70
2023-03-19T14:48:18.129Z,68.99
2023-03-19T14:50:50.648Z,73.46
2023-03-19T14:52:55.903Z,76.52
2023-03-19T14:55:12.140Z,72.38
2023-03-19T14:57:21.901Z,76.43
2023-03-19T14:59:25.020Z,78.13
2023-03-19T15:01:28.291Z,78.78
2023-03-19T15:03:37.898Z,79.43
2023-03-19T15:05:42.524Z,79.63
2023-03-19T15:07:48.272Z,80.46
2023-03-19T15:09:56.317Z,79.79
2023-03-19T15:12:17.575Z,81.40
2023-03-19T15:14:50.702Z,79.41
2023-03-19T15:17:27.569Z,81.02
2023-03-19T15:19:32.384Z,83.47
2023-03-19T15:21:34.894Z,83.04
2023-03-19T15:23:39.851Z,83.32
2023-03-19T15:25:57.092Z,83.01
2023-03-19T15:28:13.805Z,82.38
2023-03-19T15:30:28.776Z,82.80
2023-03-19T15:33:08.988Z,83.28
2023-03-19T15:35:02.430Z,84.42
2023-03-19T15:37:14.257Z,84.96
2023-03-19T15:39:19.031Z,84.79
2023-03-19T15:41:24.780Z,84.37
2023-03-19T15:43:27.975Z,85.35
2023-03-19T15:45:35.732Z,85.55
2023-03-19T15:47:45.364Z,84.10
2023-03-19T15:49:59.521Z,85.84
2023-03-19T15:52:07.363Z,84.59
2023-03-19T15:54:11.321Z,83.44
2023-03-19T15:56:17.249Z,85.01
2023-03-19T15:58:28.061Z,84.00
2023-03-19T16:00:30.789Z,85.37
2023-03-19T16:02:34.243Z,85.58
2023-03-19T16:05:03.544Z,85.76
2023-03-19T16:07:00.874Z,85.77
2023-03-19T16:09:32.105Z,79.55
2023-03-19T16:11:41.380Z,82.49
2023-03-19T16:13:57.137Z,85.10
2023-03-19T16:16:06.185Z,83.94
2023-03-19T16:18:20.508Z,82.14
2023-03-19T16:20:23.046Z,86.16
2023-03-19T16:22:33.126Z,85.05
2023-03-19T16:24:39.166Z,84.61
2023-03-19T16:26:43.962Z,85.36
2023-03-19T16:28:59.043Z,84.27
2023-03-19T16:31:01.957Z,83.05
2023-03-19T16:33:06.988Z,84.26
2023-03-19T16:35:15.604Z,84.32
2023-03-19T16:37:33.103Z,81.27
2023-03-19T16:39:37.600Z,83.43
2023-03-19T16:41:41.339Z,85.48
2023-03-19T16:43:47.573Z,85.03
2023-03-19T16:45:52.367Z,84.12
2023-03-19T16:47:57.303Z,85.55
2023-03-19T16:50:00.114Z,83.92
2023-03-19T16:52:03.309Z,86.00
2023-03-19T16:54:06.427Z,85.45
2023-03-19T16:56:12.967Z,85.42
2023-03-19T16:58:18.595Z,85.15
2023-03-19T17:00:22.555Z,86.89
2023-03-19T17:02:30.583Z,84.84
2023-03-19T17:04:33.099Z,87.02
2023-03-19T17:06:35.644Z,85.77
2023-03-19T17:08:38.200Z,86.11
2023-03-19T17:10:46.247Z,85.97
2023-03-19T17:12:52.372Z,86.41
2023-03-19T17:14:54.880Z,88.19
2023-03-19T17:16:58.195Z,87.25
2023-03-19T17:19:00.900Z,88.63
2023-03-19T17:21:17.689Z,87.54
2023-03-19T17:23:24.361Z,87.91
2023-03-19T17:25:27.119Z,89.80
2023-03-19T17:27:29.870Z,89.58
2023-03-19T17:29:33.396Z,89.61
2023-03-19T17:31:35.937Z,89.19
2023-03-19T17:33:38.533Z,89.43
2023-03-19T17:35:41.065Z,89.53
2023-03-19T17:37:44.411Z,89.97
2023-03-19T17:39:47.272Z,89.59
2023-03-19T17:41:51.485Z,90.69
2023-03-19T17:43:53.992Z,89.82
2023-03-19T17:45:57.690Z,91.77
2023-03-19T17:48:00.243Z,91.75
2023-03-19T17:50:02.906Z,92.38
2023-03-19T17:52:17.564Z,92.96
2023-03-19T17:54:20.499Z,92.37
2023-03-19T17:56:26.240Z,94.18
2023-03-19T17:58:29.347Z,93.20
2023-03-19T18:00:32.074Z,93.08
2023-03-19T18:02:36.364Z,94.66
2023-03-19T18:04:39.543Z,94.00
2023-03-19T18:06:50.758Z,93.86
2023-03-19T18:08:53.352Z,94.71
2023-03-19T18:10:55.965Z,95.82
2023-03-19T18:13:00.779Z,95.95
2023-03-19T18:15:04.513Z,94.86
2023-03-19T18:17:08.374Z,95.97
2023-03-19T18:19:20.844Z,96.19
2023-03-19T18:21:23.983Z,96.61
2023-03-19T18:23:26.704Z,96.93
2023-03-19T18:25:32.368Z,96.71
2023-03-19T18:27:35.177Z,97.16
2023-03-19T18:29:37.661Z,97.85
2023-03-19T18:31:42.032Z,98.78
2023-03-19T18:34:06.729Z,97.83
2023-03-19T18:36:09.414Z,97.88
2023-03-19T18:38:16.177Z,98.95
2023-03-19T18:40:25.669Z,98.45
2023-03-19T18:42:28.308Z,98.49
2023-03-19T18:44:31.139Z,98.14
2023-03-19T18:46:35.960Z,98.03
2023-03-19T18:48:38.538Z,97.88
2023-03-19T18:50:42.626Z,98.60
2023-03-19T18:52:47.556Z,99.04
2023-03-19T18:54:50.476Z,98.96
2023-03-19T18:56:54.974Z,98.88
2023-03-19T18:58:59.994Z,98.75
2023-03-19T19:01:04.595Z,99.48
2023-03-19T19:03:07.393Z,100.00
2023-03-19T19:05:16.029Z,99.78
2023-03-19T19:07:18.784Z,99.14
2023-03-19T19:09:21.396Z,99.41
2023-03-19T19:11:23.988Z,99.53
2023-03-19T19:13:30.453Z,99.95
2023-03-19T19:15:36.893Z,100.00
2023-03-19T19:17:41.886Z,100.00
2023-03-19T19:19:44.916Z,100.00
2023-03-19T19:21:47.374Z,99.73
2023-03-19T19:23:49.919Z,100.00
2023-03-19T19:25:55.297Z,100.00
2023-03-19T19:28:08.839Z,99.69
2023-03-19T19:30:22.148Z,100.00
2023-03-19T19:32:27.554Z,100.00
2023-03-19T19:34:30.122Z,100.00
2023-03-19T19:36:32.743Z,100.00
2023-03-19T19:38:35.439Z,100.00
2023-03-19T19:40:38.608Z,100.00
2023-03-19T19:42:41.658Z,100.00
2023-03-19T19:44:50.946Z,100.00
2023-03-19T19:46:54.702Z,100.00
2023-03-19T19:48:58.921Z,100.00
2023-03-19T19:51:01.462Z,100.00
2023-03-19T19:53:03.934Z,100.00
2023-03-19T19:55:07.098Z,100.00
2023-03-19T19:57:27.189Z,100.00
2023-03-19T19:59:29.694Z,100.00
2023-03-19T20:01:32.274Z,100.00
2023-03-19T20:03:34.990Z,100.00
2023-03-19T20:05:37.709Z,100.00
2023-03-19T20:07:40.842Z,100.00
2023-03-19T20:09:43.363Z,100.00
2023-03-19T20:11:46.244Z,100.00
2023-03-19T20:13:53.653Z,100.00
2023-03-19T20:15:58.259Z,100.00
2023-03-19T20:18:02.497Z,100.00
2023-03-19T20:20:14.662Z,100.00
2023-03-19T20:22:17.576Z,100.00
2023-03-19T20:24:20.045Z,100.00
2023-03-19T20:26:24.868Z,100.00
2023-03-19T20:28:32.606Z,100.00
2023-03-19T20:30:38.832Z,100.00
2023-03-19T20:32:41.376Z,100.00
2023-03-19T20:34:43.882Z,100.00
2023-03-19T20:36:46.356Z,100.00
2023-03-19T20:38:48.960Z,100.00
2023-03-19T20:40:56.691Z,100.00
2023-03-19T20:43:00.969Z,100.00
2023-03-19T20:45:03.810Z,100.00
2023-03-19T20:47:16.185Z,100.00
2023-03-19T20:49:18.631Z,100.00
2023-03-19T20:51:24.941Z,100.00
2023-03-19T20:53:29.371Z,100.00
2023-03-19T20:55:34.920Z,100.00
2023-03-19T20:57:38.066Z,100.00
2023-03-19T20:59:44.430Z,100.00
2023-03-19T21:01:47.101Z,100.00
2023-03-19T21:03:49.599Z,100.00
2023-03-19T21:06:03.790Z,100.00
2023-03-19T21:08:16.385Z,100.00
2023-03-19T21:10:30.931Z,100.00
2023-03-19T21:12:36.159Z,100.00
2023-03-19T21:14:38.778Z,100.00
2023-03-19T21:16:41.297Z,100.00
2023-03-19T21:18:44.029Z,100.00
2023-03-19T21:20:51.109Z,100.00
2023-03-19T21:22:58.798Z,100.00
2023-03-19T21:25:16.112Z,100.00
2023-03-19T21:27:23.087Z,100.00
2023-03-19T21:29:33.254Z,100.00
2023-03-19T21:31:36.218Z,100.00
2023-03-19T21:33:38.850Z,100.00
2023-03-19T21:35:41.450Z,100.00
2023-03-19T21:37:45.051Z,100.00
2023-03-19T21:39:48.018Z,100.00
2023-03-19T21:41:50.920Z,100.00
2023-03-19T21:43:56.366Z,100.00
2023-03-19T21:45:59.132Z,100.00
2023-03-19T21:48:45.013Z,100.00
2023-03-19T21:50:47.812Z,100.00
2023-03-19T21:53:00.554Z,100.00
2023-03-19T21:55:03.974Z,100.00
2023-03-19T21:57:09.207Z,100.00
2023-03-19T21:59:18.105Z,100.00
2023-03-19T22:01:23.797Z,100.00
2023-03-19T22:03:26.501Z,100.00
2023-03-19T22:05:29.288Z,100.00
2023-03-19T22:07:31.807Z,100.00
2023-03-19T22:09:34.287Z,100.00
2023-03-19T22:11:38.344Z,100.00
2023-03-19T22:13:43.377Z,100.00
2023-03-19T22:15:45.953Z,100.00
2023-03-19T22:17:50.073Z,100.00
2023-03-19T22:19:52.870Z,100.00
2023-03-19T22:21:55.493Z,100.00
2023-03-19T22:23:58.045Z,100.00
2023-03-19T22:26:00.604Z,100.00
2023-03-19T22:28:28.081Z,100.00
2023-03-19T22:30:38.982Z,100.00
2023-03-19T22:32:41.596Z,100.00
2023-03-19T22:34:44.969Z,100.00
2023-03-19T22:36:48.480Z,100.00
2023-03-19T22:38:51.892Z,100.00
2023-03-19T22:40:56.079Z,100.00
2023-03-19T22:42:58.708Z,100.00
2023-03-19T22:45:01.268Z,100.00
2023-03-19T22:47:05.670Z,100.00
2023-03-19T22:49:17.051Z,100.00
2023-03-19T22:51:21.662Z,100.00
2023-03-19T22:53:27.248Z,100.00
2023-03-19T22:55:29.782Z,100.00
2023-03-19T22:57:32.386Z,100.00
2023-03-19T22:59:34.942Z,100.00
2023-03-19T23:01:43.431Z,100.00
2023-03-19T23:03:46.324Z,100.00
2023-03-19T23:05:52.959Z,100.00
2023-03-19T23:07:57.517Z,100.00
2023-03-19T23:10:00.874Z,100.00
2023-03-19T23:12:04.890Z,100.00
2023-03-19T23:14:15.260Z,100.00
2023-03-19T23:16:25.524Z,100.00
2023-03-19T23:18:32.418Z,100.00
2023-03-19T23:20:35.033Z,100.00
2023-03-19T23:22:37.565Z,100.00
2023-03-19T23:24:40.062Z,100.00
2023-03-19T23:26:50.626Z,100.00
2023-03-19T23:28:53.970Z,100.00
2023-03-19T23:30:57.515Z,100.00
2023-03-19T23:33:03.306Z,100.00
2023-03-19T23:35:16.382Z,100.00
2023-03-19T23:37:18.861Z,100.00
2023-03-19T23:39:21.373Z,100.00
2023-03-19T23:41:26.087Z,100.00
2023-03-19T23:43:29.485Z,100.00
2023-03-19T23:45:41.789Z,100.00
2023-03-19T23:47:44.435Z,100.00
2023-03-19T23:49:47.037Z,100.00
2023-03-19T23:51:49.629Z,100.00
2023-03-19T23:53:52.150Z,100.00
2023-03-19T23:56:01.213Z,100.00
2023-03-19T23:58:04.091Z,100.00
